Time;durP1;ratioP1;P1;durP2;ratioP2;P2;SDS_P1;SDS_P2;PMS_P1;PMS_P2;Temp;Humidity;BMP_temperature;BMP_pressure;BME280_temperature;BME280_humidity;BME280_pressure;Samples;Min_cycle;Max_cycle;Signal;HPM_P1;HPM_P2
2022/03/10 00:01:58;;;;;;;;;;;21.50;26.40;;;;;;5054515;28;19970;-57
2022/03/10 00:04:24;;;;;;;;;;;21.50;26.40;;;;;;5035941;28;19948;-57
2022/03/10 00:06:49;;;;;;;;;;;21.50;26.40;;;;;;5055441;28;19908;-54
2022/03/10 00:09:16;;;;;;;;;;;21.50;26.40;;;;;;5019228;28;19917;-57
2022/03/10 00:11:41;;;;;;;;;;;21.50;26.40;;;;;;5055106;28;19921;-59
2022/03/10 00:14:07;;;;;;;;;;;21.50;26.40;;;;;;5050446;28;19981;-56
2022/03/10 00:16:33;;;;;;;;;;;21.50;26.40;;;;;;5047616;28;19909;-53
2022/03/10 00:18:59;;;;;;;;;;;21.50;26.30;;;;;;5053638;28;19923;-58
2022/03/10 00:21:25;;;;;;;;;;;21.40;26.30;;;;;;5055208;28;19920;-54
2022/03/10 00:23:51;;;;;;;;;;;21.50;26.30;;;;;;5054774;28;20002;-57
2022/03/10 00:26:16;;;;;;;;;;;21.40;26.30;;;;;;5053547;28;19973;-58
2022/03/10 00:28:42;;;;;;;;;;;21.50;26.30;;;;;;5053959;28;19909;-57
2022/03/10 00:31:07;;;;;;;;;;;21.40;26.30;;;;;;5034959;28;20368;-57
2022/03/10 00:33:33;;;;;;;;;;;21.40;26.30;;;;;;5054486;28;19925;-59
2022/03/10 00:35:59;;;;;;;;;;;21.40;26.30;;;;;;5052297;28;20335;-59
2022/03/10 00:38:24;;;;;;;;;;;21.40;26.30;;;;;;5054150;28;19919;-57
2022/03/10 00:40:50;;;;;;;;;;;21.40;26.30;;;;;;5053146;28;19909;-58
2022/03/10 00:43:16;;;;;;;;;;;21.40;26.30;;;;;;5052128;28;19936;-58
2022/03/10 00:45:41;;;;;;;;;;;21.40;26.30;;;;;;5053451;28;19919;-57
2022/03/10 00:48:07;;;;;;;;;;;21.40;26.30;;;;;;5054387;28;20355;-55
2022/03/10 00:50:33;;;;;;;;;;;21.40;26.30;;;;;;5053476;28;20403;-56
2022/03/10 00:52:59;;;;;;;;;;;21.40;26.30;;;;;;5054684;28;19954;-56
2022/03/10 00:55:25;;;;;;;;;;;21.40;26.30;;;;;;5053183;28;19979;-60
2022/03/10 00:57:51;;;;;;;;;;;21.40;26.30;;;;;;5053922;28;19908;-58
2022/03/10 01:00:17;;;;;;;;;;;21.40;26.30;;;;;;5051165;28;19916;-57
2022/03/10 01:02:42;;;;;;;;;;;21.40;26.30;;;;;;5054003;28;19909;-55
2022/03/10 01:05:09;;;;;;;;;;;21.40;26.30;;;;;;5053547;28;20004;-54
2022/03/10 01:07:35;;;;;;;;;;;21.40;26.30;;;;;;5052143;28;19928;-59
2022/03/10 01:10:02;;;;;;;;;;;21.40;26.30;;;;;;5050901;28;20343;-56
2022/03/10 01:12:28;;;;;;;;;;;21.40;26.30;;;;;;5053274;28;19935;-57
2022/03/10 01:14:54;;;;;;;;;;;21.30;26.30;;;;;;5053943;28;20316;-57
2022/03/10 01:17:20;;;;;;;;;;;21.30;26.20;;;;;;5050529;28;19921;-57
2022/03/10 01:19:46;;;;;;;;;;;21.30;26.20;;;;;;5053314;28;19920;-55
2022/03/10 01:22:12;;;;;;;;;;;21.30;26.20;;;;;;5053546;28;20023;-59
2022/03/10 01:24:39;;;;;;;;;;;21.30;26.20;;;;;;5052818;28;19999;-58
2022/03/10 01:27:05;;;;;;;;;;;21.30;26.20;;;;;;5053234;28;19908;-59
2022/03/10 01:29:30;;;;;;;;;;;21.30;26.20;;;;;;5052784;28;19919;-53
2022/03/10 01:31:56;;;;;;;;;;;21.30;26.20;;;;;;5052610;28;20031;-56
2022/03/10 01:34:22;;;;;;;;;;;21.30;26.20;;;;;;5051483;28;19956;-57
2022/03/10 01:36:47;;;;;;;;;;;21.30;26.20;;;;;;5052214;28;19920;-57
2022/03/10 01:39:13;;;;;;;;;;;21.30;26.20;;;;;;5053091;28;20322;-58
2022/03/10 01:41:39;;;;;;;;;;;21.30;26.70;;;;;;5052237;28;19992;-55
2022/03/10 01:44:06;;;;;;;;;;;21.30;26.20;;;;;;5052463;28;20019;-54
2022/03/10 01:46:32;;;;;;;;;;;21.30;26.20;;;;;;5052646;28;20007;-57
2022/03/10 01:48:58;;;;;;;;;;;21.20;26.20;;;;;;5048401;28;19909;-54
2022/03/10 01:51:26;;;;;;;;;;;21.20;26.20;;;;;;5053351;28;20020;-52
2022/03/10 01:53:52;;;;;;;;;;;21.20;26.20;;;;;;5052604;28;19909;-53
2022/03/10 01:56:18;;;;;;;;;;;21.20;26.20;;;;;;5049394;28;20351;-56
2022/03/10 01:58:45;;;;;;;;;;;21.20;26.20;;;;;;5052560;28;19908;-56
2022/03/10 02:01:11;;;;;;;;;;;21.20;26.20;;;;;;5049501;28;19951;-53
2022/03/10 02:03:39;;;;;;;;;;;21.20;26.20;;;;;;5053321;28;19952;-51
2022/03/10 02:06:05;;;;;;;;;;;21.20;26.20;;;;;;5051827;28;20339;-52
2022/03/10 02:11:16;;;;;;;;;;;21.20;26.20;;;;;;5049346;28;19992;-56
2022/03/10 02:13:42;;;;;;;;;;;21.20;26.20;;;;;;5053263;28;19920;-53
2022/03/10 02:18:59;;;;;;;;;;;21.20;26.20;;;;;;5052179;28;20362;-52
2022/03/10 02:21:25;;;;;;;;;;;21.20;26.20;;;;;;5045991;28;19916;-53
2022/03/10 02:23:50;;;;;;;;;;;21.20;26.20;;;;;;5052648;28;19909;-55
2022/03/10 02:26:16;;;;;;;;;;;21.20;26.20;;;;;;5051318;28;19908;-55
2022/03/10 02:28:45;;;;;;;;;;;21.20;26.20;;;;;;5051354;28;19909;-56
2022/03/10 02:31:10;;;;;;;;;;;21.20;26.20;;;;;;5052114;28;19916;-55
2022/03/10 02:33:36;;;;;;;;;;;21.20;26.20;;;;;;5052283;28;20000;-54
2022/03/10 02:36:02;;;;;;;;;;;21.20;26.20;;;;;;5052328;28;20364;-54
2022/03/10 02:38:29;;;;;;;;;;;21.20;26.20;;;;;;5052748;28;20221;-54
2022/03/10 02:40:55;;;;;;;;;;;21.10;26.10;;;;;;5052241;28;19920;-52
2022/03/10 02:43:21;;;;;;;;;;;21.10;26.10;;;;;;5053297;28;19970;-56
2022/03/10 02:45:47;;;;;;;;;;;21.10;26.10;;;;;;5051870;28;20344;-56
2022/03/10 02:48:14;;;;;;;;;;;21.10;26.10;;;;;;5052119;28;19920;-53
2022/03/10 02:50:40;;;;;;;;;;;21.20;26.20;;;;;;5051271;28;19924;-55
2022/03/10 02:53:06;;;;;;;;;;;21.10;26.20;;;;;;5052712;28;20216;-55
2022/03/10 02:55:32;;;;;;;;;;;21.10;26.10;;;;;;5054488;28;19913;-55
2022/03/10 02:57:57;;;;;;;;;;;21.10;26.60;;;;;;5037403;28;19912;-55
2022/03/10 03:00:23;;;;;;;;;;;21.10;26.10;;;;;;5052788;28;19935;-57
2022/03/10 03:02:49;;;;;;;;;;;21.10;26.10;;;;;;5055797;28;19921;-57
2022/03/10 03:05:16;;;;;;;;;;;21.10;26.10;;;;;;5054135;28;20366;-56
2022/03/10 03:07:43;;;;;;;;;;;21.10;26.10;;;;;;5055732;28;19992;-55
2022/03/10 03:10:08;;;;;;;;;;;21.10;26.10;;;;;;5054536;28;19909;-56
2022/03/10 03:12:34;;;;;;;;;;;21.10;26.10;;;;;;5056196;28;20528;-56
2022/03/10 03:15:00;;;;;;;;;;;21.10;26.10;;;;;;5055408;28;19957;-58
2022/03/10 03:17:26;;;;;;;;;;;21.10;26.10;;;;;;5056637;28;20004;-56
2022/03/10 03:19:52;;;;;;;;;;;21.10;26.10;;;;;;5055098;28;19909;-55
2022/03/10 03:22:18;;;;;;;;;;;21.10;26.10;;;;;;5056109;28;20251;-55
2022/03/10 03:24:45;;;;;;;;;;;21.10;26.10;;;;;;5053644;28;19909;-55
2022/03/10 03:27:13;;;;;;;;;;;21.00;26.00;;;;;;5037085;28;19915;-57
2022/03/10 03:29:39;;;;;;;;;;;21.00;26.00;;;;;;5056403;28;19908;-56
2022/03/10 03:32:05;;;;;;;;;;;21.00;26.00;;;;;;5055395;28;19944;-56
2022/03/10 03:34:31;;;;;;;;;;;21.10;26.10;;;;;;5053349;28;20313;-58
2022/03/10 03:36:57;;;;;;;;;;;21.00;26.00;;;;;;5054700;28;19913;-55
2022/03/10 03:39:23;;;;;;;;;;;21.00;26.00;;;;;;5055238;28;19962;-53
2022/03/10 03:41:48;;;;;;;;;;;21.00;26.00;;;;;;5053711;28;19909;-53
2022/03/10 03:44:14;;;;;;;;;;;21.00;26.00;;;;;;5055103;28;19949;-60
2022/03/10 03:46:40;;;;;;;;;;;21.00;26.00;;;;;;5051752;28;20018;-57
2022/03/10 03:49:06;;;;;;;;;;;21.00;26.00;;;;;;5054602;28;19909;-56
2022/03/10 03:51:32;;;;;;;;;;;21.00;26.00;;;;;;5055109;28;20376;-56
2022/03/10 03:53:58;;;;;;;;;;;21.00;26.00;;;;;;5054628;28;19990;-56
2022/03/10 03:56:23;;;;;;;;;;;21.00;26.00;;;;;;5052223;28;19913;-54
2022/03/10 03:58:49;;;;;;;;;;;21.00;26.00;;;;;;5054447;28;19916;-57
2022/03/10 04:01:15;;;;;;;;;;;20.90;26.00;;;;;;5053471;28;19919;-57
2022/03/10 04:03:40;;;;;;;;;;;21.00;26.00;;;;;;5054228;28;19909;-58
2022/03/10 04:06:06;;;;;;;;;;;21.00;26.00;;;;;;5054629;28;19931;-57
2022/03/10 04:08:32;;;;;;;;;;;20.90;26.00;;;;;;5053927;28;19929;-55
2022/03/10 04:10:58;;;;;;;;;;;21.00;26.00;;;;;;5054956;28;19943;-58
2022/03/10 04:13:24;;;;;;;;;;;21.00;26.00;;;;;;5054530;28;19916;-59
2022/03/10 04:15:50;;;;;;;;;;;21.00;26.00;;;;;;5054437;28;19920;-58
2022/03/10 04:18:18;;;;;;;;;;;21.00;26.00;;;;;;5054957;28;19920;-58
2022/03/10 04:20:45;;;;;;;;;;;20.90;26.00;;;;;;5053432;28;19909;-57
2022/03/10 04:23:11;;;;;;;;;;;20.90;26.00;;;;;;5054993;28;19931;-55
2022/03/10 04:25:37;;;;;;;;;;;20.90;26.00;;;;;;5053443;28;19944;-58
2022/03/10 04:28:03;;;;;;;;;;;20.90;26.00;;;;;;5049357;28;19920;-57
2022/03/10 04:30:31;;;;;;;;;;;20.90;26.00;;;;;;5053497;28;20015;-53
2022/03/10 04:32:57;;;;;;;;;;;20.90;26.00;;;;;;5053851;28;19920;-56
2022/03/10 04:35:22;;;;;;;;;;;20.90;26.00;;;;;;5054855;28;19909;-56
2022/03/10 04:37:49;;;;;;;;;;;20.90;26.00;;;;;;5049945;28;20287;-59
2022/03/10 04:40:15;;;;;;;;;;;20.90;26.00;;;;;;5054517;28;19909;-58
2022/03/10 04:42:41;;;;;;;;;;;20.90;26.00;;;;;;5051901;28;19978;-55
2022/03/10 04:45:07;;;;;;;;;;;20.90;26.00;;;;;;5054770;28;20278;-56
2022/03/10 04:47:33;;;;;;;;;;;20.90;26.00;;;;;;5053562;28;19931;-56
2022/03/10 04:49:59;;;;;;;;;;;20.90;26.00;;;;;;5052088;28;19913;-53
2022/03/10 04:52:26;;;;;;;;;;;20.90;26.00;;;;;;5051353;28;20367;-53
2022/03/10 04:54:51;;;;;;;;;;;20.90;26.00;;;;;;5050123;28;20006;-54
2022/03/10 04:57:17;;;;;;;;;;;20.90;26.00;;;;;;5052110;28;19912;-53
2022/03/10 04:59:43;;;;;;;;;;;20.80;25.90;;;;;;5053822;28;20008;-54
2022/03/10 05:02:08;;;;;;;;;;;20.80;25.90;;;;;;5053332;28;20216;-51
2022/03/10 05:04:34;;;;;;;;;;;20.80;25.90;;;;;;5054012;28;20358;-54
2022/03/10 05:06:59;;;;;;;;;;;20.80;25.90;;;;;;5052144;28;19909;-57
2022/03/10 05:09:25;;;;;;;;;;;20.80;25.90;;;;;;5053073;28;19936;-58
2022/03/10 05:11:51;;;;;;;;;;;20.80;26.00;;;;;;5023453;28;20364;-57
2022/03/10 05:14:16;;;;;;;;;;;20.80;25.90;;;;;;5052150;28;20018;-57
2022/03/10 05:16:42;;;;;;;;;;;20.80;25.90;;;;;;5036220;28;20343;-55
2022/03/10 05:19:07;;;;;;;;;;;20.80;25.90;;;;;;5052860;28;19974;-53
2022/03/10 05:21:34;;;;;;;;;;;20.80;25.90;;;;;;5053321;28;20280;-52
2022/03/10 05:24:00;;;;;;;;;;;20.80;25.90;;;;;;5050469;28;19908;-52
2022/03/10 05:26:25;;;;;;;;;;;20.80;25.90;;;;;;5051034;28;19920;-57
2022/03/10 05:28:51;;;;;;;;;;;20.80;25.90;;;;;;5052523;28;19920;-52
2022/03/10 05:31:17;;;;;;;;;;;20.80;25.90;;;;;;5053330;28;20029;-53
2022/03/10 05:33:42;;;;;;;;;;;20.80;25.90;;;;;;5035572;28;19915;-55
2022/03/10 05:36:08;;;;;;;;;;;20.80;25.90;;;;;;5052877;28;19975;-55
2022/03/10 05:38:34;;;;;;;;;;;20.80;25.90;;;;;;5052774;28;19919;-54
2022/03/10 05:41:05;;;;;;;;;;;20.70;25.90;;;;;;5053035;28;19924;-57
2022/03/10 05:43:31;;;;;;;;;;;20.80;25.90;;;;;;5053028;28;19944;-54
2022/03/10 05:45:57;;;;;;;;;;;20.70;25.90;;;;;;5051956;28;19929;-53
2022/03/10 05:48:22;;;;;;;;;;;20.80;25.90;;;;;;5052472;28;19909;-55
2022/03/10 05:50:48;;;;;;;;;;;20.70;25.90;;;;;;5052988;28;20292;-56
2022/03/10 05:53:14;;;;;;;;;;;20.80;26.00;;;;;;5053025;28;19982;-53
2022/03/10 05:55:39;;;;;;;;;;;20.80;26.40;;;;;;5050437;28;19912;-54
2022/03/10 05:58:05;;;;;;;;;;;20.80;26.00;;;;;;5052101;28;20308;-57
2022/03/10 06:00:31;;;;;;;;;;;20.70;25.90;;;;;;5053175;28;19952;-53
2022/03/10 06:02:56;;;;;;;;;;;20.70;25.90;;;;;;5050771;28;20006;-57
2022/03/10 06:05:22;;;;;;;;;;;20.80;26.40;;;;;;5053070;28;19927;-57
2022/03/10 06:07:48;;;;;;;;;;;20.70;25.90;;;;;;5052051;28;19916;-56
2022/03/10 06:10:14;;;;;;;;;;;20.70;25.90;;;;;;5050553;28;19909;-58
2022/03/10 06:12:40;;;;;;;;;;;20.70;25.90;;;;;;5052689;28;19944;-55
2022/03/10 06:15:06;;;;;;;;;;;20.70;25.90;;;;;;5048082;28;20044;-56
2022/03/10 06:17:32;;;;;;;;;;;20.70;25.90;;;;;;5050637;28;19909;-58
2022/03/10 06:19:58;;;;;;;;;;;20.70;25.90;;;;;;5051216;28;19942;-57
2022/03/10 06:22:26;;;;;;;;;;;20.70;25.90;;;;;;5053551;28;19969;-58
2022/03/10 06:24:52;;;;;;;;;;;20.70;26.00;;;;;;5052418;28;19931;-57
2022/03/10 06:27:18;;;;;;;;;;;20.70;25.90;;;;;;5054235;28;19913;-55
2022/03/10 06:29:44;;;;;;;;;;;20.70;26.00;;;;;;5056357;28;19921;-55
2022/03/10 06:32:12;;;;;;;;;;;20.70;25.90;;;;;;5057013;28;19998;-53
2022/03/10 06:34:38;;;;;;;;;;;20.70;26.00;;;;;;5049457;28;19924;-54
2022/03/10 06:37:04;;;;;;;;;;;20.70;26.00;;;;;;5056984;28;19913;-55
2022/03/10 06:39:30;;;;;;;;;;;20.70;26.00;;;;;;5055660;28;19920;-56
2022/03/10 06:41:55;;;;;;;;;;;20.70;26.00;;;;;;5056810;28;20247;-58
2022/03/10 06:44:21;;;;;;;;;;;20.70;25.90;;;;;;5049846;28;19967;-56
2022/03/10 06:46:46;;;;;;;;;;;20.70;25.90;;;;;;5056625;28;20077;-53
2022/03/10 06:49:12;;;;;;;;;;;20.70;25.90;;;;;;5055077;28;19909;-55
2022/03/10 06:51:38;;;;;;;;;;;20.70;25.90;;;;;;5038467;28;20306;-56
2022/03/10 06:54:04;;;;;;;;;;;20.70;25.80;;;;;;5053637;28;20313;-55
2022/03/10 06:56:30;;;;;;;;;;;20.70;25.80;;;;;;5052483;28;19921;-56
2022/03/10 06:58:56;;;;;;;;;;;20.60;25.70;;;;;;5038872;28;19909;-53
2022/03/10 07:01:22;;;;;;;;;;;20.60;25.70;;;;;;5051489;28;19909;-53
2022/03/10 07:03:47;;;;;;;;;;;20.60;25.70;;;;;;5050779;28;19912;-55
2022/03/10 07:06:13;;;;;;;;;;;20.60;25.70;;;;;;5052459;28;20354;-55
2022/03/10 07:08:38;;;;;;;;;;;20.60;25.70;;;;;;5055094;28;19961;-57
2022/03/10 07:11:04;;;;;;;;;;;20.60;25.70;;;;;;5056257;28;19924;-56
2022/03/10 07:13:30;;;;;;;;;;;20.70;25.70;;;;;;5055290;28;19913;-54
2022/03/10 07:15:56;;;;;;;;;;;20.60;25.70;;;;;;5053175;28;19909;-55
2022/03/10 07:18:21;;;;;;;;;;;20.60;25.70;;;;;;5056311;28;19967;-56
2022/03/10 07:20:47;;;;;;;;;;;20.60;25.70;;;;;;5054598;28;20003;-55
2022/03/10 07:23:13;;;;;;;;;;;20.60;25.70;;;;;;5050879;28;19943;-54
2022/03/10 07:25:41;;;;;;;;;;;20.60;25.70;;;;;;5051574;28;20236;-55
2022/03/10 07:28:07;;;;;;;;;;;20.60;25.70;;;;;;5053631;28;19932;-55
2022/03/10 07:30:33;;;;;;;;;;;20.60;25.70;;;;;;5054165;28;19913;-57
2022/03/10 07:32:58;;;;;;;;;;;20.60;25.60;;;;;;5054232;28;19924;-56
2022/03/10 07:35:24;;;;;;;;;;;20.60;25.70;;;;;;5055532;28;20391;-56
2022/03/10 07:37:51;;;;;;;;;;;20.60;25.60;;;;;;5054675;28;20227;-55
2022/03/10 07:40:17;;;;;;;;;;;20.60;25.70;;;;;;5056840;28;20006;-56
2022/03/10 07:42:43;;;;;;;;;;;20.60;25.60;;;;;;5053002;28;19913;-56
2022/03/10 07:45:09;;;;;;;;;;;20.60;25.60;;;;;;5049043;28;19936;-57
2022/03/10 07:47:35;;;;;;;;;;;20.60;25.60;;;;;;5046446;28;19923;-54
2022/03/10 07:50:01;;;;;;;;;;;20.60;25.60;;;;;;5054828;28;20315;-56
2022/03/10 07:52:26;;;;;;;;;;;20.60;25.50;;;;;;5054858;28;20015;-54
2022/03/10 07:54:52;;;;;;;;;;;20.60;25.50;;;;;;5040979;28;19944;-55
2022/03/10 07:57:17;;;;;;;;;;;20.60;25.50;;;;;;5056154;28;19952;-53
2022/03/10 07:59:43;;;;;;;;;;;20.60;25.50;;;;;;5047698;28;19931;-54
2022/03/10 08:02:09;;;;;;;;;;;20.60;25.40;;;;;;5050826;28;19909;-59
2022/03/10 08:04:34;;;;;;;;;;;20.60;25.50;;;;;;5045823;28;21604;-57
2022/03/10 08:07:00;;;;;;;;;;;20.60;25.50;;;;;;5050686;28;20217;-54
2022/03/10 08:09:28;;;;;;;;;;;20.60;25.50;;;;;;5048716;28;20224;-56
2022/03/10 08:11:54;;;;;;;;;;;20.70;25.50;;;;;;5053916;28;19924;-56
2022/03/10 08:14:20;;;;;;;;;;;20.70;25.50;;;;;;5038298;28;20335;-54
2022/03/10 08:16:46;;;;;;;;;;;20.70;25.50;;;;;;5055618;28;19909;-59
2022/03/10 08:19:12;;;;;;;;;;;20.80;25.50;;;;;;5053862;28;20320;-56
2022/03/10 08:21:38;;;;;;;;;;;20.80;25.40;;;;;;5057432;28;20335;-61
2022/03/10 08:24:05;;;;;;;;;;;20.90;25.40;;;;;;5048391;28;19909;-60
2022/03/10 08:26:33;;;;;;;;;;;20.90;25.40;;;;;;5055973;28;19919;-57
2022/03/10 08:28:59;;;;;;;;;;;20.90;25.90;;;;;;5040188;28;19909;-58
2022/03/10 08:31:25;;;;;;;;;;;20.90;25.40;;;;;;5051122;28;19948;-58
2022/03/10 08:33:51;;;;;;;;;;;21.00;25.90;;;;;;5054298;28;20245;-54
2022/03/10 08:36:16;;;;;;;;;;;21.00;25.40;;;;;;5055607;28;20312;-56
2022/03/10 08:38:42;;;;;;;;;;;21.00;25.40;;;;;;5053945;28;19921;-58
2022/03/10 08:41:09;;;;;;;;;;;21.10;25.40;;;;;;5037294;28;19966;-54
2022/03/10 08:43:37;;;;;;;;;;;21.10;25.40;;;;;;5049479;28;19951;-58
2022/03/10 08:46:03;;;;;;;;;;;21.10;25.30;;;;;;5055493;28;19909;-58
2022/03/10 08:48:31;;;;;;;;;;;21.20;25.40;;;;;;5052248;28;19948;-53
2022/03/10 08:51:02;;;;;;;;;;;21.20;25.40;;;;;;5042720;28;20336;-53
2022/03/10 08:53:27;;;;;;;;;;;21.20;25.40;;;;;;5054032;28;20368;-52
2022/03/10 08:55:53;;;;;;;;;;;21.20;25.40;;;;;;5054763;28;20008;-52
2022/03/10 08:58:19;;;;;;;;;;;21.20;25.40;;;;;;5055279;28;20340;-47
2022/03/10 09:00:44;;;;;;;;;;;21.20;25.40;;;;;;5051415;28;20248;-48
2022/03/10 09:03:10;;;;;;;;;;;21.20;25.40;;;;;;5042030;28;19919;-52
2022/03/10 09:05:37;;;;;;;;;;;21.20;25.40;;;;;;5052298;28;20331;-50
2022/03/10 09:08:03;;;;;;;;;;;21.20;25.40;;;;;;5034766;28;19924;-49
2022/03/10 09:10:29;;;;;;;;;;;21.20;25.40;;;;;;5038990;28;19943;-51
2022/03/10 09:12:56;;;;;;;;;;;21.20;25.40;;;;;;5055129;28;20028;-51
2022/03/10 09:15:22;;;;;;;;;;;21.20;25.30;;;;;;5044363;28;20232;-50
2022/03/10 09:17:47;;;;;;;;;;;21.20;25.30;;;;;;5054207;28;19913;-51
2022/03/10 09:20:13;;;;;;;;;;;21.20;25.30;;;;;;5053599;28;20332;-52
2022/03/10 09:22:42;;;;;;;;;;;21.20;25.30;;;;;;5051462;28;19921;-50
2022/03/10 09:25:09;;;;;;;;;;;21.20;25.30;;;;;;5048256;28;19912;-51
2022/03/10 09:27:35;;;;;;;;;;;21.20;25.30;;;;;;5053986;28;19916;-52
2022/03/10 09:30:02;;;;;;;;;;;21.20;25.30;;;;;;5053826;28;19909;-51
2022/03/10 09:32:32;;;;;;;;;;;21.20;25.30;;;;;;5051983;28;19952;-53
2022/03/10 09:34:58;;;;;;;;;;;21.20;25.30;;;;;;5045450;28;19912;-51
2022/03/10 09:37:24;;;;;;;;;;;21.20;25.30;;;;;;5041265;28;19927;-54
2022/03/10 09:39:55;;;;;;;;;;;21.20;25.30;;;;;;5045387;28;19948;-55
2022/03/10 09:42:34;;;;;;;;;;;21.10;25.20;;;;;;5046012;28;19913;-49
2022/03/10 09:45:00;;;;;;;;;;;21.10;25.20;;;;;;5054977;28;19909;-51
2022/03/10 09:47:28;;;;;;;;;;;21.10;25.20;;;;;;5055502;28;19916;-48
2022/03/10 09:49:53;;;;;;;;;;;21.10;25.20;;;;;;5051979;28;19919;-50
2022/03/10 09:52:20;;;;;;;;;;;21.10;25.20;;;;;;5037426;28;19917;-45
2022/03/10 09:54:45;;;;;;;;;;;21.10;25.20;;;;;;5054692;28;19908;-53
2022/03/10 09:57:13;;;;;;;;;;;21.10;25.20;;;;;;5053669;28;20228;-50
2022/03/10 09:59:53;;;;;;;;;;;21.10;25.10;;;;;;5051438;28;19909;-48
2022/03/10 10:02:18;;;;;;;;;;;21.10;25.10;;;;;;5048724;28;19944;-47
2022/03/10 10:04:44;;;;;;;;;;;21.10;25.10;;;;;;5057847;28;19952;-51
2022/03/10 10:07:11;;;;;;;;;;;21.10;25.10;;;;;;5041760;28;19920;-49
2022/03/10 10:09:44;;;;;;;;;;;21.10;25.10;;;;;;5046719;28;20335;-51
2022/03/10 10:12:10;;;;;;;;;;;21.10;25.10;;;;;;5040811;28;19928;-49
2022/03/10 10:14:41;;;;;;;;;;;21.10;25.10;;;;;;5039398;28;19913;-47
2022/03/10 10:17:07;;;;;;;;;;;21.10;25.10;;;;;;5052051;28;19912;-52
2022/03/10 10:19:34;;;;;;;;;;;21.10;25.10;;;;;;5053999;28;19919;-51
2022/03/10 10:22:09;;;;;;;;;;;21.10;25.20;;;;;;5057870;28;20005;-50
2022/03/10 10:24:35;;;;;;;;;;;21.10;25.20;;;;;;5056197;28;19909;-50
2022/03/10 10:27:15;;;;;;;;;;;21.10;25.20;;;;;;5057972;28;19919;-48
2022/03/10 10:29:45;;;;;;;;;;;21.10;25.20;;;;;;5038469;28;20313;-47
2022/03/10 10:32:11;;;;;;;;;;;21.10;25.20;;;;;;5040937;28;20291;-51
2022/03/10 10:34:36;;;;;;;;;;;21.10;25.20;;;;;;5054286;28;19920;-50
2022/03/10 10:37:02;;;;;;;;;;;21.10;25.20;;;;;;5070443;28;19916;-49
2022/03/10 10:39:28;;;;;;;;;;;21.10;25.20;;;;;;5038812;28;19912;-50
2022/03/10 10:41:53;;;;;;;;;;;21.10;25.20;;;;;;5056208;28;19919;-48
2022/03/10 10:44:20;;;;;;;;;;;21.10;25.20;;;;;;5035268;28;19909;-49
2022/03/10 10:46:48;;;;;;;;;;;21.10;25.20;;;;;;5057109;28;19908;-50
2022/03/10 10:49:18;;;;;;;;;;;21.10;25.20;;;;;;5057296;28;19909;-48
2022/03/10 10:51:44;;;;;;;;;;;21.10;25.20;;;;;;5058013;28;19924;-55
2022/03/10 10:54:25;;;;;;;;;;;21.20;25.30;;;;;;5058320;28;19913;-48
2022/03/10 10:56:52;;;;;;;;;;;21.10;25.30;;;;;;5055968;28;19909;-46
2022/03/10 10:59:34;;;;;;;;;;;21.10;25.30;;;;;;5042127;28;19921;-48
2022/03/10 11:02:03;;;;;;;;;;;21.20;25.30;;;;;;5053060;28;19909;-51
2022/03/10 11:04:28;;;;;;;;;;;21.10;25.30;;;;;;5042226;28;19913;-47
2022/03/10 11:06:54;;;;;;;;;;;21.10;25.30;;;;;;5050210;28;20004;-49
2022/03/10 11:09:20;;;;;;;;;;;21.20;25.40;;;;;;5042542;28;19928;-54
2022/03/10 11:11:46;;;;;;;;;;;21.10;25.30;;;;;;5054264;28;19916;-50
2022/03/10 11:14:12;;;;;;;;;;;21.20;25.30;;;;;;5037801;28;20004;-47
2022/03/10 11:16:38;;;;;;;;;;;21.20;25.40;;;;;;5051094;28;19914;-47
2022/03/10 11:19:04;;;;;;;;;;;21.10;25.40;;;;;;5057338;28;19975;-47
2022/03/10 11:21:38;;;;;;;;;;;21.20;25.70;;;;;;5055442;28;20394;-52
2022/03/10 11:24:19;;;;;;;;;;;21.20;25.90;;;;;;5039554;28;19909;-51
2022/03/10 11:26:51;;;;;;;;;;;21.20;26.00;;;;;;5043496;28;19924;-50
2022/03/10 11:29:21;;;;;;;;;;;21.30;26.20;;;;;;5056721;28;20354;-50
2022/03/10 11:31:47;;;;;;;;;;;21.40;26.30;;;;;;5055247;28;19924;-48
2022/03/10 11:34:32;;;;;;;;;;;21.40;26.30;;;;;;5055757;28;19913;-48
2022/03/10 11:37:08;;;;;;;;;;;21.40;26.40;;;;;;5054993;28;19912;-52
2022/03/10 11:39:51;;;;;;;;;;;21.50;26.40;;;;;;5050276;28;19931;-53
2022/03/10 11:42:29;;;;;;;;;;;21.50;26.50;;;;;;5036492;28;20297;-54
2022/03/10 11:45:11;;;;;;;;;;;21.60;26.60;;;;;;5044503;28;19909;-50
2022/03/10 11:47:38;;;;;;;;;;;21.60;26.60;;;;;;5053026;28;19978;-50
2022/03/10 11:50:22;;;;;;;;;;;21.70;26.60;;;;;;5047968;28;19909;-52
2022/03/10 11:52:53;;;;;;;;;;;21.70;26.60;;;;;;5050055;28;20058;-55
2022/03/10 11:55:21;;;;;;;;;;;21.70;26.60;;;;;;5036557;28;19908;-53
2022/03/10 11:57:56;;;;;;;;;;;21.70;26.50;;;;;;5056631;28;19920;-52
2022/03/10 12:00:23;;;;;;;;;;;21.80;26.50;;;;;;5055265;28;19908;-55
2022/03/10 12:02:58;;;;;;;;;;;21.80;26.50;;;;;;5048207;28;19908;-55
2022/03/10 12:05:24;;;;;;;;;;;21.90;26.50;;;;;;5055505;28;19936;-52
2022/03/10 12:07:51;;;;;;;;;;;21.90;26.50;;;;;;5031337;28;20244;-51
2022/03/10 12:10:17;;;;;;;;;;;22.00;26.50;;;;;;5041619;28;19920;-48
2022/03/10 12:12:45;;;;;;;;;;;22.00;26.40;;;;;;5049172;28;19917;-53
2022/03/10 12:15:24;;;;;;;;;;;22.10;26.40;;;;;;5056625;28;19916;-50
2022/03/10 12:17:53;;;;;;;;;;;22.10;26.40;;;;;;5054241;28;19999;-49
2022/03/10 12:20:26;;;;;;;;;;;22.10;26.30;;;;;;5047424;28;19984;-55
2022/03/10 12:23:03;;;;;;;;;;;22.10;26.30;;;;;;5056785;28;20220;-51
2022/03/10 12:25:30;;;;;;;;;;;22.20;26.30;;;;;;5041782;28;19917;-48
2022/03/10 12:27:56;;;;;;;;;;;22.20;26.30;;;;;;5039826;28;20232;-48
2022/03/10 12:30:24;;;;;;;;;;;22.30;26.30;;;;;;5044728;28;19974;-52
2022/03/10 12:32:51;;;;;;;;;;;22.30;26.20;;;;;;5049716;28;19982;-47
2022/03/10 12:35:24;;;;;;;;;;;22.30;26.20;;;;;;5048140;28;19913;-46
2022/03/10 12:37:50;;;;;;;;;;;22.30;26.10;;;;;;5040489;28;19920;-47
2022/03/10 12:40:17;;;;;;;;;;;22.40;26.10;;;;;;5036498;28;19917;-47
2022/03/10 12:42:44;;;;;;;;;;;22.40;26.00;;;;;;5046743;28;19919;-44
2022/03/10 12:45:09;;;;;;;;;;;22.40;26.00;;;;;;5045765;28;20226;-48
2022/03/10 12:47:38;;;;;;;;;;;22.40;25.90;;;;;;5056461;28;19920;-50
2022/03/10 12:50:04;;;;;;;;;;;22.40;25.90;;;;;;5041189;28;19909;-46
2022/03/10 12:52:29;;;;;;;;;;;22.50;25.80;;;;;;5034775;28;19932;-48
2022/03/10 12:54:56;;;;;;;;;;;22.50;25.80;;;;;;5044483;28;19963;-50
2022/03/10 12:57:26;;;;;;;;;;;22.50;25.80;;;;;;5041713;28;19978;-50
2022/03/10 12:59:51;;;;;;;;;;;22.50;25.80;;;;;;5054396;28;19913;-51
2022/03/10 13:02:27;;;;;;;;;;;22.50;25.70;;;;;;5054668;28;20355;-52
2022/03/10 13:04:55;;;;;;;;;;;22.50;25.70;;;;;;5044477;28;19963;-54
2022/03/10 13:07:22;;;;;;;;;;;22.60;25.70;;;;;;5045970;28;19917;-55
2022/03/10 13:09:54;;;;;;;;;;;22.60;25.70;;;;;;5038384;28;19928;-49
2022/03/10 13:12:27;;;;;;;;;;;22.60;25.70;;;;;;5046962;28;20019;-48
2022/03/10 13:14:55;;;;;;;;;;;22.60;25.60;;;;;;5048532;28;22803;-52
2022/03/10 13:17:31;;;;;;;;;;;22.60;25.60;;;;;;5053784;28;19920;-50
2022/03/10 13:19:57;;;;;;;;;;;22.60;25.60;;;;;;5055293;28;19919;-58
2022/03/10 13:22:23;;;;;;;;;;;22.60;25.50;;;;;;5061044;28;19908;-55
2022/03/10 13:24:52;;;;;;;;;;;22.60;25.50;;;;;;5037080;28;19920;-48
2022/03/10 13:27:19;;;;;;;;;;;22.60;25.50;;;;;;5047187;28;20233;-53
2022/03/10 13:29:48;;;;;;;;;;;22.60;25.50;;;;;;5046178;28;19909;-47
2022/03/10 13:32:17;;;;;;;;;;;22.60;25.50;;;;;;5041245;28;21129;-52
2022/03/10 13:34:43;;;;;;;;;;;22.70;25.50;;;;;;5043022;28;19924;-50
2022/03/10 13:37:10;;;;;;;;;;;22.70;25.50;;;;;;5042798;28;19920;-53
2022/03/10 13:39:36;;;;;;;;;;;22.60;25.40;;;;;;5045358;28;20245;-49
2022/03/10 13:42:10;;;;;;;;;;;22.70;26.00;;;;;;5043475;28;19909;-49
2022/03/10 13:44:37;;;;;;;;;;;22.60;25.40;;;;;;5049806;28;19992;-52
2022/03/10 13:47:06;;;;;;;;;;;22.70;25.50;;;;;;5041946;28;19982;-49
2022/03/10 13:49:47;;;;;;;;;;;22.70;25.60;;;;;;5052464;28;19908;-52
2022/03/10 13:52:14;;;;;;;;;;;22.70;25.40;;;;;;5045475;28;20244;-53
2022/03/10 13:54:51;;;;;;;;;;;22.70;25.40;;;;;;5039723;28;19971;-56
2022/03/10 13:57:17;;;;;;;;;;;22.70;25.40;;;;;;5036610;28;19913;-57
2022/03/10 13:59:45;;;;;;;;;;;22.70;25.40;;;;;;5050468;28;19923;-56
2022/03/10 14:02:24;;;;;;;;;;;22.70;25.40;;;;;;5050962;28;19916;-50
2022/03/10 14:04:51;;;;;;;;;;;22.70;25.30;;;;;;5044580;28;20031;-56
2022/03/10 14:07:16;;;;;;;;;;;22.70;25.30;;;;;;5036090;28;19928;-49
2022/03/10 14:09:42;;;;;;;;;;;22.70;25.30;;;;;;5040694;28;20012;-56
2022/03/10 14:12:18;;;;;;;;;;;22.60;25.30;;;;;;5050835;28;19933;-49
2022/03/10 14:14:47;;;;;;;;;;;22.70;25.30;;;;;;5036139;28;20380;-53
2022/03/10 14:17:13;;;;;;;;;;;22.60;25.20;;;;;;5045235;28;19932;-53
2022/03/10 14:19:38;;;;;;;;;;;22.60;25.30;;;;;;5052140;28;20332;-55
2022/03/10 14:22:04;;;;;;;;;;;22.60;25.20;;;;;;5043181;28;19954;-55